Szafir — 5BFC3 — position and weather

sailwx.info

Track history (hours):
 
Tides and Currents Weather Stations Pressure Air Temp Water Temp Dewpoint Dewpoint Depression Visibility Wind Speed Wind Dir Waves Ship Positions

Szafir

Last reported at 2014-Sep-23 13:31 UTC. Time now 2014-Nov-01 11:17 UTC.
Position N 50°34' E 000°16'.
Warning: this ship's position is 38 days out of date.

Length 113 m; draft 8.7 m.

Type: Ship. MMSI: 209366000.

Date/timePositionNaut miles runAvg speedWind from/ knotsBaromVisibWave heightAir tempDewpointWater temp
2014-Sep-23 13:31N 50°34' E 000°16'1112.0
2014-Sep-23 12:33N 50°38' E 000°33'1211.3
2014-Sep-23 11:32N 50°44' E 000°48'3210.8
2014-Sep-23 08:33N 51°04' E 001°28'1414.0
2014-Sep-23 07:34N 51°13' E 001°45'1313.3
2014-Sep-23 06:34N 51°25' E 001°56'1212.1
2014-Sep-23 05:33N 51°34' E 002°08'1111.1
2014-Sep-23 04:32N 51°43' E 002°20'29 9.7
2014-Sep-23 01:32N 52°05' E 002°51'5510.5
2014-Sep-22 20:20N 52°48' E 003°46'1011.7
2014-Sep-22 19:31N 52°56' E 003°56'1111.0
2014-Sep-22 18:33N 53°03' E 004°09'1010.2
2014-Sep-22 17:33N 53°10' E 004°22'10 9.6
2014-Sep-22 16:31N 53°18' E 004°29'9 9.5
2014-Sep-22 15:33N 53°27' E 004°34'25 8.3
2014-Sep-22 12:33N 53°48' E 004°57'7 7.0
2014-Sep-22 11:31N 53°44' E 005°07'6 6.4
2014-Sep-22 10:33N 53°49' E 005°13'4 4.4
2014-Sep-22 09:33N 53°49' E 005°21'5 5.4
2014-Sep-22 08:33N 53°46' E 005°28'6 5.5
2014-Sep-22 07:33N 53°51' E 005°33'5 4.7
2014-Sep-22 06:33N 53°48' E 005°40'4 3.8
2014-Sep-22 05:33N 53°49' E 005°46'9 8.8
2014-Sep-22 04:33N 53°57' E 005°52'5 5.3
2014-Sep-22 03:32N 53°60' E 006°00'6 5.7
2014-Sep-22 02:33N 53°57' E 006°09'51 5.1
2014-Sep-21 16:33N 53°60' E 007°35'16 7.9
2014-Sep-21 14:32N 53°52' E 007°58'1010.2
2014-Sep-21 13:33N 53°46' E 008°11'1312.6
2014-Sep-21 12:33N 53°38' E 008°28'8 8.3
2014-Sep-21 11:33N 53°29' E 008°30'10 9.6
2014-Sep-21 10:33N 53°20' E 008°30'8 8.4
2014-Sep-21 09:33N 53°12' E 008°32'8 7.6
2014-Sep-21 08:34N 53°07' E 008°42'2 1.9
2014-Sep-21 07:33N 53°06' E 008°45'0 0.0
2014-Sep-21 06:33N 53°06' E 008°45'0 0.0
2014-Sep-21 05:33N 53°06' E 008°45'0 0.0
2014-Sep-21 04:33N 53°06' E 008°45'0 0.0
2014-Sep-21 03:33N 53°06' E 008°45'0 0.0
2014-Sep-21 02:33N 53°06' E 008°45'0 0.0
2014-Sep-21 01:33N 53°06' E 008°45'0 0.0
2014-Sep-21 00:33N 53°06' E 008°45'0 0.0
2014-Sep-20 23:33N 53°06' E 008°45'0 0.0
2014-Sep-20 22:33N 53°06' E 008°45'0 0.0
2014-Sep-20 21:33N 53°06' E 008°45'0 0.0
2014-Sep-20 20:33N 53°06' E 008°45'0 0.0
2014-Sep-20 19:33N 53°06' E 008°45'0 0.0
2014-Sep-20 18:33N 53°06' E 008°45'0 0.0
2014-Sep-20 17:30N 53°06' E 008°45'0 0.0
2014-Sep-20 16:33N 53°06' E 008°45'0 0.0
2014-Sep-20 15:33N 53°06' E 008°45'0 0.0
2014-Sep-20 14:33N 53°06' E 008°45'0 0.0
2014-Sep-20 13:33N 53°06' E 008°45'0 0.0
2014-Sep-20 12:33N 53°06' E 008°45'0 0.0
2014-Sep-20 11:33N 53°06' E 008°45'0 0.0
2014-Sep-20 10:33N 53°06' E 008°45'0 0.0
2014-Sep-20 09:33N 53°06' E 008°45'0 0.0
2014-Sep-20 08:33N 53°06' E 008°45'0 0.0
2014-Sep-20 07:33N 53°06' E 008°45'0 0.0
2014-Sep-20 06:33N 53°06' E 008°45'0 0.0
2014-Sep-20 05:33N 53°06' E 008°45'0 0.0
2014-Sep-20 04:33N 53°06' E 008°45'0 0.0
2014-Sep-20 03:33N 53°06' E 008°45'0 0.0
2014-Sep-20 02:33N 53°06' E 008°45'0 0.0
2014-Sep-20 01:33N 53°06' E 008°45'0 0.0
2014-Sep-20 00:33N 53°06' E 008°45'0 0.0
2014-Sep-19 23:33N 53°06' E 008°45'0 0.0
2014-Sep-19 22:33N 53°06' E 008°45'0 0.0
2014-Sep-19 21:33N 53°06' E 008°45'0 0.0
2014-Sep-19 20:33N 53°06' E 008°45'0 0.0
2014-Sep-19 19:33N 53°06' E 008°45'0 0.0
2014-Sep-19 18:33N 53°06' E 008°45'0 0.0
2014-Sep-19 17:23N 53°06' E 008°45'0 0.0
2014-Sep-19 16:20N 53°06' E 008°45'0 0.0
2014-Sep-19 15:32N 53°06' E 008°45'0 0.0
2014-Sep-19 14:32N 53°06' E 008°45'0 0.0
2014-Sep-19 13:32N 53°06' E 008°45'0 0.0
2014-Sep-19 12:32N 53°06' E 008°45'0 0.0
2014-Sep-19 11:32N 53°06' E 008°45'0 0.0
2014-Sep-19 10:32N 53°06' E 008°45'0 0.0
2014-Sep-19 09:32N 53°06' E 008°45'0 0.0
2014-Sep-19 08:32N 53°06' E 008°45'0 0.0
2014-Sep-19 07:32N 53°06' E 008°45'0 0.0
2014-Sep-19 06:32N 53°06' E 008°45'0 0.0
2014-Sep-19 05:32N 53°06' E 008°45'0 0.0
2014-Sep-19 04:32N 53°06' E 008°45'0 0.0
2014-Sep-19 03:32N 53°06' E 008°45'0 0.0
2014-Sep-19 02:32N 53°06' E 008°45'4 4.0
2014-Sep-19 01:34N 53°08' E 008°39'9 9.4
2014-Sep-19 00:33N 53°15' E 008°29'1010.0
2014-Sep-18 23:33N 53°25' E 008°30'8 8.2
2014-Sep-18 22:33N 53°33' E 008°33'9 8.5
2014-Sep-18 21:33N 53°39' E 008°24'10 9.9
2014-Sep-18 20:34N 53°46' E 008°11'1010.1
2014-Sep-18 19:33N 53°51' E 007°57'6 6.2
2014-Sep-18 18:33N 53°55' E 007°49'0 0.0
2014-Sep-18 11:25N 53°55' E 007°49'0 0.0
2014-Sep-18 07:19N 53°55' E 007°49'0 0.0
2014-Sep-18 06:25N 53°55' E 007°49'0 0.0
2014-Sep-18 04:31N 53°55' E 007°49'0 0.0
2014-Sep-18 02:19N 53°55' E 007°49'0 0.0
2014-Sep-18 01:25N 53°55' E 007°49'0 0.0
2014-Sep-18 00:19N 53°55' E 007°49'0 0.0
2014-Sep-17 23:22N 53°55' E 007°49'0 0.0
2014-Sep-17 21:31N 53°55' E 007°49'0 0.0
2014-Sep-17 19:28N 53°55' E 007°49'0 0.0
2014-Sep-17 18:28N 53°55' E 007°49'0 0.0
2014-Sep-17 17:31N 53°55' E 007°49'0 0.0
2014-Sep-17 15:31N 53°55' E 007°49'0 0.0
2014-Sep-17 12:31N 53°55' E 007°49'0 0.0
2014-Sep-17 11:10N 53°55' E 007°49'0 0.0
2014-Sep-17 10:25N 53°55' E 007°49'0 0.0
2014-Sep-17 09:25N 53°55' E 007°49'0 0.0
2014-Sep-17 08:19N 53°55' E 007°49'0 0.0
2014-Sep-17 07:10N 53°55' E 007°49'0 0.0
2014-Sep-17 06:28N 53°55' E 007°49'0 0.0
2014-Sep-17 05:31N 53°55' E 007°49'0 0.0
2014-Sep-17 04:25N 53°55' E 007°49'0 0.0
2014-Sep-17 03:13N 53°55' E 007°49'0 0.0
2014-Sep-17 02:31N 53°55' E 007°49'0 0.0
2014-Sep-17 01:28N 53°55' E 007°49'0 0.0
2014-Sep-17 00:31N 53°55' E 007°49'0 0.0
2014-Sep-16 23:25N 53°55' E 007°49'0 0.0
2014-Sep-16 22:31N 53°55' E 007°49'0 0.0
2014-Sep-16 21:28N 53°55' E 007°49'0 0.0
2014-Sep-16 20:28N 53°55' E 007°49'0 0.0
2014-Sep-16 19:31N 53°55' E 007°49'0 0.0
2014-Sep-16 18:31N 53°55' E 007°49'0 0.0
2014-Sep-16 17:31N 53°55' E 007°49'0 0.0
2014-Sep-16 16:31N 53°55' E 007°49'0 0.0
2014-Sep-16 15:07N 53°55' E 007°49'0 0.0
2014-Sep-16 14:28N 53°55' E 007°49'0 0.0
2014-Sep-16 11:13N 53°55' E 007°49'0 0.0
2014-Sep-16 10:31N 53°55' E 007°49'0 0.0
2014-Sep-16 08:25N 53°55' E 007°49'0 0.0
2014-Sep-16 06:22N 53°55' E 007°49'0 0.0
2014-Sep-16 05:28N 53°55' E 007°49'0 0.0
2014-Sep-16 04:28N 53°55' E 007°49'0 0.0
2014-Sep-16 03:13N 53°55' E 007°49'0 0.0
2014-Sep-16 02:28N 53°55' E 007°49'0 0.0
2014-Sep-16 01:31N 53°55' E 007°49'0 0.0
2014-Sep-15 23:31N 53°55' E 007°49'0 0.0
2014-Sep-15 22:28N 53°55' E 007°49'0 0.0
2014-Sep-15 21:22N 53°55' E 007°49'0 0.0
2014-Sep-15 20:31N 53°55' E 007°49'0 0.0
2014-Sep-15 19:31N 53°55' E 007°49'0 0.0
2014-Sep-15 18:31N 53°55' E 007°49'0 0.0
2014-Sep-15 17:10N 53°55' E 007°49'0 0.0
2014-Sep-15 10:28N 53°55' E 007°49'0 0.0
2014-Sep-15 09:31N 53°55' E 007°49'0 0.0
2014-Sep-15 08:31N 53°55' E 007°49'0 0.0
2014-Sep-15 07:25N 53°55' E 007°49'0 0.0
2014-Sep-15 06:25N 53°55' E 007°49'0 0.0
2014-Sep-15 05:31N 53°55' E 007°49'0 0.0
2014-Sep-15 04:31N 53°55' E 007°49'0 0.0
2014-Sep-15 03:31N 53°55' E 007°49'0 0.0
2014-Sep-15 02:25N 53°55' E 007°49'0 0.0
2014-Sep-14 23:28N 53°55' E 007°49'0 0.1
2014-Sep-14 22:31N 53°55' E 007°49'0 0.0
2014-Sep-14 21:19N 53°55' E 007°49'0 0.0
2014-Sep-14 20:31N 53°55' E 007°49'0 0.0
2014-Sep-14 19:13N 53°55' E 007°49'0 0.0
2014-Sep-14 18:31N 53°55' E 007°49'0 0.0
2014-Sep-14 17:31N 53°55' E 007°49'0 0.0
2014-Sep-14 16:31N 53°55' E 007°49'0 0.1
2014-Sep-14 15:10N 53°55' E 007°49'0 0.0
2014-Sep-14 13:31N 53°55' E 007°49'0 0.0
2014-Sep-14 12:19N 53°55' E 007°49'0 0.0
2014-Sep-14 11:31N 53°55' E 007°49'0 0.0
2014-Sep-14 10:22N 53°55' E 007°49'0 0.0
2014-Sep-14 09:31N 53°55' E 007°49'0 0.0
2014-Sep-14 08:25N 53°55' E 007°49'0 0.0
2014-Sep-14 06:31N 53°55' E 007°49'0 0.0
2014-Sep-14 05:31N 53°55' E 007°49'0 0.0
2014-Sep-14 03:19N 53°55' E 007°49'0 0.0
2014-Sep-13 20:10N 53°55' E 007°49'0 0.0
2014-Sep-13 17:25N 53°55' E 007°49'0 0.0
2014-Sep-13 16:31N 53°55' E 007°49'0 0.0
2014-Sep-13 15:28N 53°55' E 007°49'0 0.0
2014-Sep-13 14:31N 53°55' E 007°49'  
Track history (hours):
 
Tides and Currents Weather Stations Pressure Air Temp Water Temp Dewpoint Dewpoint Depression Visibility Wind Speed Wind Dir Waves Ship Positions

Szafir

Last reported at 2014-Sep-23 13:31 UTC. Time now 2014-Nov-01 11:17 UTC.
Position N 50°34' E 000°16'.
Warning: this ship's position is 38 days out of date.

Length 113 m; draft 8.7 m.

Type: Ship. MMSI: 209366000.

Date/timePositionNaut miles runAvg speedWind from/ knotsBaromVisibWave heightAir tempDewpointWater temp
2014-Sep-23 13:31N 50°34' E 000°16'1112.0
2014-Sep-23 12:33N 50°38' E 000°33'1211.3
2014-Sep-23 11:32N 50°44' E 000°48'3210.8
2014-Sep-23 08:33N 51°04' E 001°28'1414.0
2014-Sep-23 07:34N 51°13' E 001°45'1313.3
2014-Sep-23 06:34N 51°25' E 001°56'1212.1
2014-Sep-23 05:33N 51°34' E 002°08'1111.1
2014-Sep-23 04:32N 51°43' E 002°20'29 9.7
2014-Sep-23 01:32N 52°05' E 002°51'5510.5
2014-Sep-22 20:20N 52°48' E 003°46'1011.7
2014-Sep-22 19:31N 52°56' E 003°56'1111.0
2014-Sep-22 18:33N 53°03' E 004°09'1010.2
2014-Sep-22 17:33N 53°10' E 004°22'10 9.6
2014-Sep-22 16:31N 53°18' E 004°29'9 9.5
2014-Sep-22 15:33N 53°27' E 004°34'25 8.3
2014-Sep-22 12:33N 53°48' E 004°57'7 7.0
2014-Sep-22 11:31N 53°44' E 005°07'6 6.4
2014-Sep-22 10:33N 53°49' E 005°13'4 4.4
2014-Sep-22 09:33N 53°49' E 005°21'5 5.4
2014-Sep-22 08:33N 53°46' E 005°28'6 5.5
2014-Sep-22 07:33N 53°51' E 005°33'5 4.7
2014-Sep-22 06:33N 53°48' E 005°40'4 3.8
2014-Sep-22 05:33N 53°49' E 005°46'9 8.8
2014-Sep-22 04:33N 53°57' E 005°52'5 5.3
2014-Sep-22 03:32N 53°60' E 006°00'6 5.7
2014-Sep-22 02:33N 53°57' E 006°09'51 5.1
2014-Sep-21 16:33N 53°60' E 007°35'16 7.9
2014-Sep-21 14:32N 53°52' E 007°58'1010.2
2014-Sep-21 13:33N 53°46' E 008°11'1312.6
2014-Sep-21 12:33N 53°38' E 008°28'8 8.3
2014-Sep-21 11:33N 53°29' E 008°30'10 9.6
2014-Sep-21 10:33N 53°20' E 008°30'8 8.4
2014-Sep-21 09:33N 53°12' E 008°32'8 7.6
2014-Sep-21 08:34N 53°07' E 008°42'2 1.9
2014-Sep-21 07:33N 53°06' E 008°45'0 0.0
2014-Sep-21 06:33N 53°06' E 008°45'0 0.0
2014-Sep-21 05:33N 53°06' E 008°45'0 0.0
2014-Sep-21 04:33N 53°06' E 008°45'0 0.0
2014-Sep-21 03:33N 53°06' E 008°45'0 0.0
2014-Sep-21 02:33N 53°06' E 008°45'0 0.0
2014-Sep-21 01:33N 53°06' E 008°45'0 0.0
2014-Sep-21 00:33N 53°06' E 008°45'0 0.0
2014-Sep-20 23:33N 53°06' E 008°45'0 0.0
2014-Sep-20 22:33N 53°06' E 008°45'0 0.0
2014-Sep-20 21:33N 53°06' E 008°45'0 0.0
2014-Sep-20 20:33N 53°06' E 008°45'0 0.0
2014-Sep-20 19:33N 53°06' E 008°45'0 0.0
2014-Sep-20 18:33N 53°06' E 008°45'0 0.0
2014-Sep-20 17:30N 53°06' E 008°45'0 0.0
2014-Sep-20 16:33N 53°06' E 008°45'0 0.0
2014-Sep-20 15:33N 53°06' E 008°45'0 0.0
2014-Sep-20 14:33N 53°06' E 008°45'0 0.0
2014-Sep-20 13:33N 53°06' E 008°45'0 0.0
2014-Sep-20 12:33N 53°06' E 008°45'0 0.0
2014-Sep-20 11:33N 53°06' E 008°45'0 0.0
2014-Sep-20 10:33N 53°06' E 008°45'0 0.0
2014-Sep-20 09:33N 53°06' E 008°45'0 0.0
2014-Sep-20 08:33N 53°06' E 008°45'0 0.0
2014-Sep-20 07:33N 53°06' E 008°45'0 0.0
2014-Sep-20 06:33N 53°06' E 008°45'0 0.0
2014-Sep-20 05:33N 53°06' E 008°45'0 0.0
2014-Sep-20 04:33N 53°06' E 008°45'0 0.0
2014-Sep-20 03:33N 53°06' E 008°45'0 0.0
2014-Sep-20 02:33N 53°06' E 008°45'0 0.0
2014-Sep-20 01:33N 53°06' E 008°45'0 0.0
2014-Sep-20 00:33N 53°06' E 008°45'0 0.0
2014-Sep-19 23:33N 53°06' E 008°45'0 0.0
2014-Sep-19 22:33N 53°06' E 008°45'0 0.0
2014-Sep-19 21:33N 53°06' E 008°45'0 0.0
2014-Sep-19 20:33N 53°06' E 008°45'0 0.0
2014-Sep-19 19:33N 53°06' E 008°45'0 0.0
2014-Sep-19 18:33N 53°06' E 008°45'0 0.0
2014-Sep-19 17:23N 53°06' E 008°45'0 0.0
2014-Sep-19 16:20N 53°06' E 008°45'0 0.0
2014-Sep-19 15:32N 53°06' E 008°45'0 0.0
2014-Sep-19 14:32N 53°06' E 008°45'0 0.0
2014-Sep-19 13:32N 53°06' E 008°45'0 0.0
2014-Sep-19 12:32N 53°06' E 008°45'0 0.0
2014-Sep-19 11:32N 53°06' E 008°45'0 0.0
2014-Sep-19 10:32N 53°06' E 008°45'0 0.0
2014-Sep-19 09:32N 53°06' E 008°45'0 0.0
2014-Sep-19 08:32N 53°06' E 008°45'0 0.0
2014-Sep-19 07:32N 53°06' E 008°45'0 0.0
2014-Sep-19 06:32N 53°06' E 008°45'0 0.0
2014-Sep-19 05:32N 53°06' E 008°45'0 0.0
2014-Sep-19 04:32N 53°06' E 008°45'0 0.0
2014-Sep-19 03:32N 53°06' E 008°45'0 0.0
2014-Sep-19 02:32N 53°06' E 008°45'4 4.0
2014-Sep-19 01:34N 53°08' E 008°39'9 9.4
2014-Sep-19 00:33N 53°15' E 008°29'1010.0
2014-Sep-18 23:33N 53°25' E 008°30'8 8.2
2014-Sep-18 22:33N 53°33' E 008°33'9 8.5
2014-Sep-18 21:33N 53°39' E 008°24'10 9.9
2014-Sep-18 20:34N 53°46' E 008°11'1010.1
2014-Sep-18 19:33N 53°51' E 007°57'6 6.2
2014-Sep-18 18:33N 53°55' E 007°49'0 0.0
2014-Sep-18 11:25N 53°55' E 007°49'0 0.0
2014-Sep-18 07:19N 53°55' E 007°49'0 0.0
2014-Sep-18 06:25N 53°55' E 007°49'0 0.0
2014-Sep-18 04:31N 53°55' E 007°49'0 0.0
2014-Sep-18 02:19N 53°55' E 007°49'0 0.0
2014-Sep-18 01:25N 53°55' E 007°49'0 0.0
2014-Sep-18 00:19N 53°55' E 007°49'0 0.0
2014-Sep-17 23:22N 53°55' E 007°49'0 0.0
2014-Sep-17 21:31N 53°55' E 007°49'0 0.0
2014-Sep-17 19:28N 53°55' E 007°49'0 0.0
2014-Sep-17 18:28N 53°55' E 007°49'0 0.0
2014-Sep-17 17:31N 53°55' E 007°49'0 0.0
2014-Sep-17 15:31N 53°55' E 007°49'0 0.0
2014-Sep-17 12:31N 53°55' E 007°49'0 0.0
2014-Sep-17 11:10N 53°55' E 007°49'0 0.0
2014-Sep-17 10:25N 53°55' E 007°49'0 0.0
2014-Sep-17 09:25N 53°55' E 007°49'0 0.0
2014-Sep-17 08:19N 53°55' E 007°49'0 0.0
2014-Sep-17 07:10N 53°55' E 007°49'0 0.0
2014-Sep-17 06:28N 53°55' E 007°49'0 0.0
2014-Sep-17 05:31N 53°55' E 007°49'0 0.0
2014-Sep-17 04:25N 53°55' E 007°49'0 0.0
2014-Sep-17 03:13N 53°55' E 007°49'0 0.0
2014-Sep-17 02:31N 53°55' E 007°49'0 0.0
2014-Sep-17 01:28N 53°55' E 007°49'0 0.0
2014-Sep-17 00:31N 53°55' E 007°49'0 0.0
2014-Sep-16 23:25N 53°55' E 007°49'0 0.0
2014-Sep-16 22:31N 53°55' E 007°49'0 0.0
2014-Sep-16 21:28N 53°55' E 007°49'0 0.0
2014-Sep-16 20:28N 53°55' E 007°49'0 0.0
2014-Sep-16 19:31N 53°55' E 007°49'0 0.0
2014-Sep-16 18:31N 53°55' E 007°49'0 0.0
2014-Sep-16 17:31N 53°55' E 007°49'0 0.0
2014-Sep-16 16:31N 53°55' E 007°49'0 0.0
2014-Sep-16 15:07N 53°55' E 007°49'0 0.0
2014-Sep-16 14:28N 53°55' E 007°49'0 0.0
2014-Sep-16 11:13N 53°55' E 007°49'0 0.0
2014-Sep-16 10:31N 53°55' E 007°49'0 0.0
2014-Sep-16 08:25N 53°55' E 007°49'0 0.0
2014-Sep-16 06:22N 53°55' E 007°49'0 0.0
2014-Sep-16 05:28N 53°55' E 007°49'0 0.0
2014-Sep-16 04:28N 53°55' E 007°49'0 0.0
2014-Sep-16 03:13N 53°55' E 007°49'0 0.0
2014-Sep-16 02:28N 53°55' E 007°49'0 0.0
2014-Sep-16 01:31N 53°55' E 007°49'0 0.0
2014-Sep-15 23:31N 53°55' E 007°49'0 0.0
2014-Sep-15 22:28N 53°55' E 007°49'0 0.0
2014-Sep-15 21:22N 53°55' E 007°49'0 0.0
2014-Sep-15 20:31N 53°55' E 007°49'0 0.0
2014-Sep-15 19:31N 53°55' E 007°49'0 0.0
2014-Sep-15 18:31N 53°55' E 007°49'0 0.0
2014-Sep-15 17:10N 53°55' E 007°49'0 0.0
2014-Sep-15 10:28N 53°55' E 007°49'0 0.0
2014-Sep-15 09:31N 53°55' E 007°49'0 0.0
2014-Sep-15 08:31N 53°55' E 007°49'0 0.0
2014-Sep-15 07:25N 53°55' E 007°49'0 0.0
2014-Sep-15 06:25N 53°55' E 007°49'0 0.0
2014-Sep-15 05:31N 53°55' E 007°49'0 0.0
2014-Sep-15 04:31N 53°55' E 007°49'0 0.0
2014-Sep-15 03:31N 53°55' E 007°49'0 0.0
2014-Sep-15 02:25N 53°55' E 007°49'0 0.0
2014-Sep-14 23:28N 53°55' E 007°49'0 0.1
2014-Sep-14 22:31N 53°55' E 007°49'0 0.0
2014-Sep-14 21:19N 53°55' E 007°49'0 0.0
2014-Sep-14 20:31N 53°55' E 007°49'0 0.0
2014-Sep-14 19:13N 53°55' E 007°49'0 0.0
2014-Sep-14 18:31N 53°55' E 007°49'0 0.0
2014-Sep-14 17:31N 53°55' E 007°49'0 0.0
2014-Sep-14 16:31N 53°55' E 007°49'0 0.1
2014-Sep-14 15:10N 53°55' E 007°49'0 0.0
2014-Sep-14 13:31N 53°55' E 007°49'0 0.0
2014-Sep-14 12:19N 53°55' E 007°49'0 0.0
2014-Sep-14 11:31N 53°55' E 007°49'0 0.0
2014-Sep-14 10:22N 53°55' E 007°49'0 0.0
2014-Sep-14 09:31N 53°55' E 007°49'0 0.0
2014-Sep-14 08:25N 53°55' E 007°49'0 0.0
2014-Sep-14 06:31N 53°55' E 007°49'0 0.0
2014-Sep-14 05:31N 53°55' E 007°49'0 0.0
2014-Sep-14 03:19N 53°55' E 007°49'0 0.0
2014-Sep-13 20:10N 53°55' E 007°49'0 0.0
2014-Sep-13 17:25N 53°55' E 007°49'0 0.0
2014-Sep-13 16:31N 53°55' E 007°49'0 0.0
2014-Sep-13 15:28N 53°55' E 007°49'0 0.0
2014-Sep-13 14:31N 53°55' E 007°49'  

Dump ship's entire track history